Latest Weather Observations for Coolangatta

IDQ60801

Issued at 12:02 am EST Wednesday 1 July 2015 (issued every 30 minutes, with the page automatically refreshed every 10 minutes)

About weather observations | Map of weather stations | Latest weather observations for QLD | Other Formats
Station Details ID: 040717 Name: COOLANGATTA Lat: -28.17 Lon: 153.51 Height: 4.0 m
Data from the previous 72 hours. | See also: Recent months at Coolangatta
Date/Time
EST
Temp
°C
App
Temp
°C
Dew
Point
Rel
Hum
%
Delta-T
°C
Wind Press
QNH
hPa
Press
MSL
hPa
Rain
since 9 am
mm
Dir
 
Spd
km/h
Gust
km/h
Spd
kts
Gust
kts
30/11:30pm 14.3 13.3 13.3 94 0.6 WSW 11 13 6 7 1024.9 1024.9 0.0
30/11:00pm 14.4 14.3 13.4 94 0.6 SW 6 9 3 5 1024.9 1024.9 0.0
30/10:30pm 14.8 14.6 13.7 93 0.6 WSW 7 11 4 6 1025.3 1025.3 0.0
30/10:00pm 14.9 14.8 13.8 93 0.6 SW 7 9 4 5 1025.4 1025.4 0.0
30/09:30pm 15.0 15.0 13.7 92 0.7 WSW 6 6 3 3 1025.5 1025.5 0.0
30/09:00pm 15.7 15.3 14.2 91 0.8 WSW 9 15 5 8 1025.4 1025.4 0.0
30/08:30pm 15.9 15.1 14.1 89 1.0 WSW 11 11 6 6 1025.4 1025.4 0.0
30/08:00pm 16.7 16.2 14.9 89 1.0 WSW 11 13 6 7 1025.3 1025.3 0.0
30/07:30pm 17.1 16.9 14.6 85 1.4 SW 9 11 5 6 1025.2 1025.2 0.0
30/07:00pm 17.2 17.3 14.5 84 1.5 SSW 7 11 4 6 1024.8 1024.8 0.0
30/06:30pm 17.6 17.8 14.7 83 1.7 SSW 7 9 4 5 1024.6 1024.6 0.0
30/06:00pm 17.2 16.9 14.5 84 1.5 S 9 11 5 6 1024.5 1024.5 0.0
30/05:30pm 17.9 17.9 14.2 79 2.1 S 7 9 4 5 1024.3 1024.3 0.0
30/05:00pm 18.9 19.0 14.0 73 2.8 S 6 7 3 4 1024.3 1024.3 0.0
30/04:30pm 19.4 18.9 13.8 70 3.2 SSE 9 11 5 6 1024.3 1024.3 0.0
30/04:00pm 20.0 18.8 12.7 63 4.1 SE 11 17 6 9 1024.1 1024.1 0.0
30/03:30pm 21.2 20.1 13.1 60 4.6 E 11 17 6 9 1023.8 1023.8 0.0
30/03:00pm 21.3 19.6 12.4 57 5.0 ENE 13 17 7 9 1024.0 1024.0 0.0
30/02:30pm 21.8 20.1 12.6 56 5.2 ENE 13 17 7 9 1024.0 1024.0 0.0
30/02:00pm 21.7 20.5 13.9 61 4.5 NE 13 19 7 10 1024.1 1024.1 0.0
30/01:30pm 21.4 19.5 13.1 59 4.7 NE 15 17 8 9 1024.3 1024.3 0.0
30/01:00pm 21.8 21.5 13.2 58 4.9 E 7 13 4 7 1024.8 1024.8 0.0
30/12:30pm 21.4 21.0 13.1 59 4.7 SE 7 11 4 6 1025.1 1025.1 0.0
30/12:00pm 21.3 20.7 13.5 61 4.5 SSE 9 13 5 7 1025.7 1025.7 0.0
30/11:30am 21.2 19.8 13.4 61 4.5 SSE 13 17 7 9 1026.3 1026.3 0.0
30/11:00am 20.6 19.3 13.6 64 4.0 S 13 20 7 11 1026.7 1026.7 0.0
30/10:30am 19.8 18.9 13.7 68 3.5 SSW 11 15 6 8 1027.3 1027.3 0.0
30/10:00am 19.7 18.5 13.9 69 3.3 S 13 17 7 9 1027.3 1027.3 0.0
30/09:30am 18.4 18.0 14.1 76 2.5 SSW 9 15 5 8 1027.7 1027.7 0.0
30/09:00am 18.4 17.5 13.7 74 2.7 SSW 11 15 6 8 1027.7 1027.7 4.6
30/08:30am 17.5 17.1 14.2 81 1.9 SSW 9 15 5 8 1027.6 1027.6 4.6
30/08:00am 16.1 15.8 14.3 89 1.0 S 9 15 5 8 1027.4 1027.4 4.6
30/07:30am 14.2 14.2 13.6 96 0.3 S 6 7 3 4 1027.3 1027.3 4.6
30/07:00am 13.2 12.8 12.4 95 0.4 SSE 6 7 3 4 1027.3 1027.3 4.6
30/06:30am 13.3 12.4 12.5 95 0.4 SW 9 9 5 5 1027.2 1027.2 4.6
30/06:00am 13.0 12.0 12.2 95 0.4 S 9 11 5 6 1027.0 1027.0 4.6
30/05:30am 12.9 12.1 11.6 92 0.7 SSW 7 7 4 4 1026.9 1026.9 4.6
30/05:00am 13.8 13.8 12.4 91 0.8 SW 4 11 2 6 1026.9 1026.9 4.6
30/04:30am 13.9 13.9 12.3 90 0.9 S 4 9 2 5 1026.9 1026.9 4.6
30/04:00am 14.7 13.5 12.9 89 1.0 SSW 11 17 6 9 1027.0 1027.0 4.6
30/03:30am 13.9 12.9 12.3 90 0.9 SSW 9 13 5 7 1027.1 1027.1 4.6
30/03:00am 13.9 13.0 12.5 91 0.8 S 9 13 5 7 1027.4 1027.4 4.6
30/02:30am 14.2 13.8 12.9 92 0.7 SSW 7 13 4 7 1027.4 1027.4 4.6
30/02:00am 14.4 14.3 13.4 94 0.6 SSW 6 7 3 4 1027.6 1027.6 4.6
30/01:30am 13.7 13.4 12.8 94 0.5 WSW 6 9 3 5 1027.6 1027.6 4.6
30/01:00am 13.9 14.5 13.0 94 0.5 WSW 2 7 1 4 1027.8 1027.8 4.6
30/12:30am 14.6 14.5 14.0 96 0.3 SW 7 11 4 6 1027.9 1027.9 4.6
30/12:00am 14.9 15.2 14.4 97 0.3 SSW 6 7 3 4 1028.3 1028.3 4.6
 
Date/Time
EST
Temp
°C
App
Temp
°C
Dew
Point
Rel
Hum
%
Delta-T
°C
Wind Press
QNH
hPa
Press
MSL
hPa
Rain
since 9 am
mm
Dir
 
Spd
km/h
Gust
km/h
Spd
kts
Gust
kts
29/11:30pm 15.0 15.3 14.5 97 0.3 SSW 6 7 3 4 1028.6 1028.6 4.4
29/11:00pm 14.8 15.7 14.0 95 0.4 NNW 2 6 1 3 1028.9 1028.9 4.4
29/10:30pm 15.3 15.1 14.7 96 0.3 SW 9 9 5 5 1029.3 1029.3 4.4
29/10:00pm 15.3 15.3 14.3 94 0.6 WSW 7 9 4 5 1029.3 1029.3 4.4
29/09:30pm 15.6 15.8 14.6 94 0.6 NW 7 9 4 5 1029.5 1029.5 4.4
29/09:00pm 15.6 15.7 14.5 93 0.6 NW 7 9 4 5 1029.6 1029.6 4.4
29/08:30pm 15.8 16.1 14.5 92 0.7 NNW 6 9 3 5 1029.5 1029.5 4.4
29/08:00pm 15.5 15.7 14.2 92 0.7 NW 6 9 3 5 1029.5 1029.5 4.4
29/07:30pm 15.7 15.0 14.4 92 0.7 WSW 11 13 6 7 1029.1 1029.1 4.4
29/07:00pm 15.8 15.6 14.7 93 0.6 WSW 9 11 5 6 1029.1 1029.1 4.4
29/06:30pm 16.0 15.9 15.0 94 0.6 W 9 11 5 6 1028.9 1028.9 4.4
29/06:13pm 16.1 16.6 15.0 93 0.6 SW 6 7 3 4 1028.7 1028.7 4.4
29/06:00pm 16.1 16.0 15.0 93 0.6 S 9 13 5 7 1028.7 1028.7 4.4
29/05:47pm 16.4 15.2 15.1 92 0.8 SSE 15 22 8 12 1028.5 1028.5 4.2
29/05:39pm 16.6 15.0 15.1 91 0.9 SSE 17 24 9 13 1028.4 1028.4 4.2
29/05:30pm 16.5 14.5 14.9 90 0.9 S 19 26 10 14 1028.2 1028.2 4.2
29/05:29pm 16.5 14.5 14.9 90 0.9 S 19 26 10 14 1028.2 1028.2 4.2
29/05:00pm 17.2 16.7 14.8 86 1.4 S 11 17 6 9 1028.0 1028.0 4.2
29/04:30pm 17.4 16.8 14.5 83 1.7 SSW 11 17 6 9 1028.1 1028.1 4.2
29/04:00pm 17.8 17.7 14.9 83 1.7 SSW 9 15 5 8 1028.1 1028.1 4.2
29/03:30pm 17.9 17.9 15.2 84 1.6 SSW 9 11 5 6 1028.3 1028.3 4.2
29/03:00pm 17.9 18.6 16.2 90 1.0 WNW 7 11 4 6 1028.7 1028.7 4.2
29/02:30pm 18.1 19.1 16.3 89 1.1 NNW 6 7 3 4 1028.5 1028.5 4.2
29/02:24pm 17.9 18.6 15.7 87 1.3 NW 6 7 3 4 1028.4 1028.4 4.2
29/02:08pm 18.3 19.0 16.1 87 1.3 NNW 7 9 4 5 1028.6 1028.6 4.2
29/02:00pm 18.3 18.4 15.4 83 1.7 N 9 9 5 5 1028.5 1028.5 3.8
29/01:30pm 18.2 17.5 15.3 83 1.7 NE 13 15 7 8 1028.7 1028.7 3.8
29/01:00pm 18.3 18.7 16.3 88 1.2 SW 9 11 5 6 1028.8 1028.8 3.8
29/12:39pm 17.7 18.5 15.9 89 1.1 SSW 6 9 3 5 1029.0 1029.0 3.8
29/12:30pm 17.6 18.0 16.3 92 0.8 W 9 13 5 7 1029.2 1029.2 3.8
29/12:18pm 17.5 18.6 15.7 89 1.1 NNE 4 11 2 6 1029.4 1029.4 3.4
29/12:00pm 17.5 19.0 15.8 90 1.0 SW 2 7 1 4 1029.9 1029.9 2.4
29/11:30am 17.0 17.6 15.9 93 0.6 W 7 9 4 5 1030.7 1030.7 2.4
29/11:25am 16.9 17.5 15.9 94 0.6 WSW 7 9 4 5 1030.8 1030.8 2.4
29/11:00am 16.7 17.0 15.9 95 0.5 SW 9 11 5 6 1031.2 1031.2 2.0
29/10:30am 16.4 16.2 15.6 95 0.5 SSW 11 15 6 8 1031.2 1031.2 1.6
29/10:10am 16.3 16.0 15.5 95 0.5 SSW 11 17 6 9 1031.3 1031.3 1.4
29/10:00am 16.6 16.5 16.0 96 0.4 S 11 15 6 8 1031.5 1031.5 1.4
29/09:49am 16.4 16.2 15.8 96 0.4 SSW 11 17 6 9 1031.7 1031.7 1.4
29/09:30am 16.0 15.3 15.4 96 0.3 SSW 13 17 7 9 1031.7 1031.7 1.4
29/09:22am 16.0 15.3 15.4 96 0.3 SSW 13 19 7 10 1031.6 1031.6 1.2
29/09:12am 15.8 14.7 15.2 96 0.3 SSW 15 19 8 10 1031.5 1031.5 0.6
29/09:11am 15.7 14.5 15.1 96 0.3 SSW 15 19 8 10 1031.5 1031.5 0.6
29/09:00am 15.5 14.6 14.9 96 0.3 SSW 13 20 7 11 1031.5 1031.5 4.2
29/08:30am 15.5 14.2 14.7 95 0.5 SSW 15 20 8 11 1031.3 1031.3 2.8
29/08:23am 15.5 13.8 14.7 95 0.5 S 17 22 9 12 1031.4 1031.4 2.4
29/08:00am 15.7 14.1 14.9 95 0.5 SSW 17 24 9 13 1031.1 1031.1 1.4
29/07:30am 15.7 14.8 14.9 95 0.5 SSW 13 20 7 11 1030.9 1030.9 1.0
29/07:04am 15.6 14.7 14.8 95 0.5 SSW 13 19 7 10 1030.6 1030.6 0.4
29/07:00am 15.6 14.3 14.8 95 0.5 SSW 15 20 8 11 1030.5 1030.5 0.4
29/06:30am 15.7 15.2 14.9 95 0.5 SSW 11 13 6 7 1030.2 1030.2 0.4
29/06:00am 15.7 15.1 14.7 94 0.6 SSW 11 17 6 9 1029.8 1029.8 0.4
29/05:30am 15.7 15.2 14.9 95 0.5 SW 11 15 6 8 1029.5 1029.5 0.4
29/05:12am 15.7 14.8 14.9 95 0.5 SW 13 20 7 11 1029.4 1029.4 0.4
29/05:00am 15.8 14.6 15.0 95 0.5 SSW 15 20 8 11 1029.3 1029.3 0.4
29/04:50am 15.8 15.3 15.0 95 0.5 SSW 11 17 6 9 1029.3 1029.3 0.2
29/04:30am 15.7 15.2 14.9 95 0.5 S 11 15 6 8 1029.3 1029.3 0.2
29/04:00am 15.6 15.5 15.0 96 0.3 W 9 13 5 7 1029.0 1029.0 0.2
29/03:47am 15.8 15.4 15.2 96 0.3 SW 11 17 6 9 1029.2 1029.2 0.2
29/03:30am 15.6 15.1 15.0 96 0.3 S 11 17 6 9 1029.3 1029.3 0.2
29/03:27am 15.6 15.1 15.0 96 0.3 S 11 15 6 8 1029.4 1029.4 0.0
29/03:00am 15.4 14.1 14.9 97 0.3 S 15 20 8 11 1029.4 1029.4 0.0
29/02:30am 14.6 14.6 14.1 97 0.3 SSW 7 9 4 5 1029.4 1029.4 0.0
29/02:00am 14.3 14.7 13.7 96 0.3 SW 4 9 2 5 1029.3 1029.3 0.0
29/01:30am 14.9 15.1 14.3 96 0.3 SW 6 7 3 4 1029.4 1029.4 0.0
29/01:00am 15.0 15.3 14.5 97 0.3 SW 6 9 3 5 1029.6 1029.6 0.0
29/12:30am 14.8 14.8 14.2 96 0.3 SW 7 9 4 5 1029.9 1029.9 0.0
29/12:00am 15.0 15.2 14.2 95 0.4 S 6 6 3 3 1030.0 1030.0 0.0
 
Date/Time
EST
Temp
°C
App
Temp
°C
Dew
Point
Rel
Hum
%
Delta-T
°C
Wind Press
QNH
hPa
Press
MSL
hPa
Rain
since 9 am
mm
Dir
 
Spd
km/h
Gust
km/h
Spd
kts
Gust
kts
28/11:30pm 15.2 15.3 14.4 95 0.5 SSW 7 11 4 6 1030.2 1030.2 0.0
28/11:00pm 15.5 16.2 14.5 94 0.6 SW 4 7 2 4 1030.4 1030.4 0.0
28/10:30pm 16.0 16.5 15.0 94 0.6 SSW 6 7 3 4 1030.5 1030.5 0.0
28/10:00pm 16.2 16.2 15.2 94 0.6 S 9 11 5 6 1030.7 1030.7 0.0
28/09:30pm 16.0 15.9 15.0 94 0.6 SW 9 11 5 6 1030.6 1030.6 0.0
28/09:00pm 16.2 16.5 14.9 92 0.7 SW 7 9 4 5 1030.6 1030.6 0.0
28/08:30pm 16.6 16.9 15.1 91 0.9 WSW 7 11 4 6 1030.5 1030.5 0.0
28/08:00pm 16.8 17.2 15.2 90 0.9 SSW 7 9 4 5 1030.5 1030.5 0.0
28/07:30pm 17.1 17.5 15.4 90 1.0 WSW 7 9 4 5 1030.4 1030.4 0.0
28/07:00pm 17.1 17.3 14.7 86 1.4 SW 7 11 4 6 1030.1 1030.1 0.0
28/06:30pm 17.8 18.6 14.9 83 1.7 S 4 7 2 4 1029.8 1029.8 0.0
28/06:00pm 17.9 17.7 14.8 82 1.8 SSW 9 11 5 6 1029.3 1029.3 0.0
28/05:30pm 17.9 17.7 14.6 81 1.9 SE 9 11 5 6 1029.0 1029.0 0.0
28/05:00pm 18.5 17.4 15.2 81 1.9 SSE 15 20 8 11 1028.9 1028.9 0.0
28/04:30pm 19.2 17.4 15.9 81 2.0 SE 20 28 11 15 1028.8 1028.8 0.0
28/04:00pm 20.2 18.4 16.0 77 2.5 SE 20 28 11 15 1028.6 1028.6 0.0
28/03:30pm 20.7 20.0 15.5 72 3.1 S 13 19 7 10 1028.3 1028.3 0.0
28/03:00pm 20.5 20.1 16.1 76 2.6 SSE 13 20 7 11 1028.2 1028.2 0.0
28/02:30pm 19.9 18.3 14.9 73 2.9 SSE 17 28 9 15 1028.2 1028.2 0.0
28/02:00pm 21.9 21.2 15.5 67 3.8 SSW 13 22 7 12 1028.2 1028.2 0.0
28/01:30pm 21.6 20.9 15.4 68 3.7 SSW 13 20 7 11 1028.3 1028.3 0.0
28/01:00pm 21.3 19.6 15.8 71 3.3 S 19 24 10 13 1028.6 1028.6 0.0
28/12:30pm 21.2 19.9 15.7 71 3.3 SSW 17 24 9 13 1028.8 1028.8 0.0
28/12:00pm 21.0 19.6 15.5 71 3.3 SSW 17 22 9 12 1029.2 1029.2 0.0
28/11:30am 20.8 18.8 15.6 72 3.1 S 20 26 11 14 1029.8 1029.8 0.0
28/11:00am 20.4 18.0 15.4 73 2.9 S 22 30 12 16 1030.1 1030.1 0.0
28/10:30am 20.4 18.9 15.2 72 3.1 S 17 28 9 15 1030.6 1030.6 0.0
28/10:00am 19.8 19.2 15.7 77 2.4 SSW 13 20 7 11 1030.9 1030.9 0.0
28/09:30am 19.4 19.5 15.5 78 2.3 SW 9 17 5 9 1030.9 1030.9 0.0
28/09:00am 19.5 18.8 15.4 77 2.4 SSW 13 20 7 11 1030.8 1030.8 2.4
28/08:30am 18.5 18.0 14.8 79 2.1 SSW 11 17 6 9 1030.5 1030.5 2.4
28/08:00am 17.9 17.0 14.8 82 1.8 SSW 13 20 7 11 1030.4 1030.4 2.4
28/07:30am 17.2 17.6 15.4 89 1.1 SW 7 11 4 6 1030.1 1030.1 2.2
28/07:00am 16.2 15.7 14.9 92 0.7 SSW 11 15 6 8 1029.8 1029.8 2.2
28/06:30am 15.9 15.7 14.6 92 0.7 SW 9 15 5 8 1029.6 1029.6 2.2
28/06:00am 16.2 15.2 14.7 91 0.9 SSW 13 20 7 11 1029.5 1029.5 2.2
28/05:30am 16.4 15.3 15.3 93 0.6 SSW 15 20 8 11 1029.3 1029.3 2.2
28/05:00am 16.2 15.4 15.1 93 0.6 SSW 13 15 7 8 1029.2 1029.2 2.2
28/04:38am 16.4 15.3 15.3 93 0.6 SSW 15 19 8 10 1028.9 1028.9 2.2
28/04:30am 16.4 15.7 15.3 93 0.6 S 13 17 7 9 1029.0 1029.0 2.2
28/04:15am 16.6 15.4 15.1 91 0.9 S 15 20 8 11 1029.0 1029.0 2.0
28/04:00am 16.7 15.9 15.1 90 0.9 SSW 13 19 7 10 1028.9 1028.9 1.8
28/03:30am 16.7 15.9 15.2 91 0.9 SSW 13 17 7 9 1028.9 1028.9 1.8
28/03:00am 16.8 15.7 15.2 90 0.9 SSW 15 20 8 11 1029.0 1029.0 1.8
28/02:30am 16.7 15.4 14.9 89 1.0 SSW 15 22 8 12 1029.1 1029.1 1.8
28/02:00am 16.6 15.7 14.8 89 1.0 SSW 13 17 7 9 1029.1 1029.1 1.8
28/01:30am 16.3 15.7 14.7 90 0.9 SSW 11 19 6 10 1029.2 1029.2 1.8
28/01:00am 15.9 15.3 14.6 92 0.7 SSW 11 15 6 8 1029.4 1029.4 1.8
28/12:30am 16.3 15.7 14.7 90 0.9 SSW 11 22 6 12 1029.5 1029.5 1.8

Other Formats:

Comma delimited format used in spreadsheet applications
http://www.bom.gov.au/fwo/IDQ60801/IDQ60801.94592.axf

JavaScript Object Notation format (JSON) in row-major order
http://www.bom.gov.au/fwo/IDQ60801/IDQ60801.94592.json